Blue Vision — MRNB — position and weather

sailwx.info

Track history (hours):
 
Tides and Currents Weather Stations Pressure Air Temp Water Temp Dewpoint Dewpoint Depression Visibility Wind Speed Wind Dir Waves Ship Positions

Blue Vision

Last reported at 2015-Aug-18 14:05 UTC. Time now 2015-Aug-31 21:54 UTC.
Position N 39°34' E 002°38'.
Warning: this ship's position is 13 days out of date.

Length 45 m; draft 3 m.

Type: Pleasure craft. MMSI: 235054475.

Date/timePositionNaut miles runAvg speedWind from/ knotsBaromVisibWave heightAir tempDewpointWater temp
2015-Aug-18 14:05N 39°34' E 002°38'0 0.0
2015-Aug-18 13:33N 39°34' E 002°38'0 0.0
2015-Aug-18 12:33N 39°34' E 002°38'0 0.0
2015-Aug-18 11:33N 39°34' E 002°38'0 0.0
2015-Aug-18 10:33N 39°34' E 002°38'0 0.0
2015-Aug-18 09:33N 39°34' E 002°38'0 0.0
2015-Aug-18 08:33N 39°34' E 002°38'0 0.0
2015-Aug-18 07:34N 39°34' E 002°38'0 0.0
2015-Aug-18 06:34N 39°34' E 002°38'0 0.0
2015-Aug-18 05:33N 39°34' E 002°38'0 0.0
2015-Aug-18 04:33N 39°34' E 002°38'0 0.0
2015-Aug-18 04:11N 39°34' E 002°38'0 0.0
2015-Aug-18 04:08N 39°34' E 002°38'0 0.0
2015-Aug-18 03:33N 39°34' E 002°38'0 0.0
2015-Aug-18 02:33N 39°34' E 002°38'0 0.0
2015-Aug-18 01:33N 39°34' E 002°38'0 0.0
2015-Aug-18 00:33N 39°34' E 002°38'0 0.0
2015-Aug-17 23:33N 39°34' E 002°38'0 0.0
2015-Aug-17 22:33N 39°34' E 002°38'0 0.0
2015-Aug-17 21:33N 39°34' E 002°38'0 0.0
2015-Aug-17 20:33N 39°34' E 002°38'0 0.0
2015-Aug-17 19:33N 39°34' E 002°38'0 0.0
2015-Aug-17 18:33N 39°34' E 002°38'0 0.0
2015-Aug-17 17:33N 39°34' E 002°38'0 0.0
2015-Aug-17 16:33N 39°34' E 002°38'0 0.0
2015-Aug-17 15:33N 39°34' E 002°38'0 0.0
2015-Aug-17 14:33N 39°34' E 002°38'0 0.0
2015-Aug-17 13:33N 39°34' E 002°38'0 0.0
2015-Aug-17 12:34N 39°34' E 002°38'0 0.0
2015-Aug-17 11:33N 39°34' E 002°38'0 0.0
2015-Aug-17 10:34N 39°34' E 002°38'0 0.0
2015-Aug-17 09:33N 39°34' E 002°38'0 0.0
2015-Aug-17 08:33N 39°34' E 002°38'0 0.0
2015-Aug-17 07:33N 39°34' E 002°38'0 0.0
2015-Aug-17 06:33N 39°34' E 002°38'2 1.7
2015-Aug-17 05:33N 39°32' E 002°38'10 9.9
2015-Aug-17 04:33N 39°25' E 002°29'1010.3
2015-Aug-17 03:33N 39°20' E 002°18'1010.5
2015-Aug-17 02:33N 39°14' E 002°07'1010.3
2015-Aug-17 01:33N 39°08' E 001°55'1010.2
2015-Aug-17 00:33N 39°02' E 001°45'1010.1
2015-Aug-16 23:33N 38°57' E 001°34'5 0.8
2015-Aug-16 17:32N 38°55' E 001°28'0 0.0
2015-Aug-16 16:20N 38°55' E 001°28'0 0.0
2015-Aug-16 14:32N 38°55' E 001°28'0 0.0
2015-Aug-16 12:08N 38°55' E 001°28'0 0.5
2015-Aug-16 11:32N 38°54' E 001°28'  
2015-Aug-10 17:31N 38°55' E 001°27'7 5.7
2015-Aug-10 16:19N 38°51' E 001°19'8 0.2
2015-Aug-08 23:30N 38°55' E 001°28'0 0.0
2015-Aug-08 22:06N 38°55' E 001°28'0 0.1
2015-Aug-08 19:24N 38°54' E 001°28'  
Track history (hours):
 
Tides and Currents Weather Stations Pressure Air Temp Water Temp Dewpoint Dewpoint Depression Visibility Wind Speed Wind Dir Waves Ship Positions

Blue Vision

Last reported at 2015-Aug-18 14:05 UTC. Time now 2015-Aug-31 21:54 UTC.
Position N 39°34' E 002°38'.
Warning: this ship's position is 13 days out of date.

Length 45 m; draft 3 m.

Type: Pleasure craft. MMSI: 235054475.

Date/timePositionNaut miles runAvg speedWind from/ knotsBaromVisibWave heightAir tempDewpointWater temp
2015-Aug-18 14:05N 39°34' E 002°38'0 0.0
2015-Aug-18 13:33N 39°34' E 002°38'0 0.0
2015-Aug-18 12:33N 39°34' E 002°38'0 0.0
2015-Aug-18 11:33N 39°34' E 002°38'0 0.0
2015-Aug-18 10:33N 39°34' E 002°38'0 0.0
2015-Aug-18 09:33N 39°34' E 002°38'0 0.0
2015-Aug-18 08:33N 39°34' E 002°38'0 0.0
2015-Aug-18 07:34N 39°34' E 002°38'0 0.0
2015-Aug-18 06:34N 39°34' E 002°38'0 0.0
2015-Aug-18 05:33N 39°34' E 002°38'0 0.0
2015-Aug-18 04:33N 39°34' E 002°38'0 0.0
2015-Aug-18 04:11N 39°34' E 002°38'0 0.0
2015-Aug-18 04:08N 39°34' E 002°38'0 0.0
2015-Aug-18 03:33N 39°34' E 002°38'0 0.0
2015-Aug-18 02:33N 39°34' E 002°38'0 0.0
2015-Aug-18 01:33N 39°34' E 002°38'0 0.0
2015-Aug-18 00:33N 39°34' E 002°38'0 0.0
2015-Aug-17 23:33N 39°34' E 002°38'0 0.0
2015-Aug-17 22:33N 39°34' E 002°38'0 0.0
2015-Aug-17 21:33N 39°34' E 002°38'0 0.0
2015-Aug-17 20:33N 39°34' E 002°38'0 0.0
2015-Aug-17 19:33N 39°34' E 002°38'0 0.0
2015-Aug-17 18:33N 39°34' E 002°38'0 0.0
2015-Aug-17 17:33N 39°34' E 002°38'0 0.0
2015-Aug-17 16:33N 39°34' E 002°38'0 0.0
2015-Aug-17 15:33N 39°34' E 002°38'0 0.0
2015-Aug-17 14:33N 39°34' E 002°38'0 0.0
2015-Aug-17 13:33N 39°34' E 002°38'0 0.0
2015-Aug-17 12:34N 39°34' E 002°38'0 0.0
2015-Aug-17 11:33N 39°34' E 002°38'0 0.0
2015-Aug-17 10:34N 39°34' E 002°38'0 0.0
2015-Aug-17 09:33N 39°34' E 002°38'0 0.0
2015-Aug-17 08:33N 39°34' E 002°38'0 0.0
2015-Aug-17 07:33N 39°34' E 002°38'0 0.0
2015-Aug-17 06:33N 39°34' E 002°38'2 1.7
2015-Aug-17 05:33N 39°32' E 002°38'10 9.9
2015-Aug-17 04:33N 39°25' E 002°29'1010.3
2015-Aug-17 03:33N 39°20' E 002°18'1010.5
2015-Aug-17 02:33N 39°14' E 002°07'1010.3
2015-Aug-17 01:33N 39°08' E 001°55'1010.2
2015-Aug-17 00:33N 39°02' E 001°45'1010.1
2015-Aug-16 23:33N 38°57' E 001°34'5 0.8
2015-Aug-16 17:32N 38°55' E 001°28'0 0.0
2015-Aug-16 16:20N 38°55' E 001°28'0 0.0
2015-Aug-16 14:32N 38°55' E 001°28'0 0.0
2015-Aug-16 12:08N 38°55' E 001°28'0 0.5
2015-Aug-16 11:32N 38°54' E 001°28'  
2015-Aug-10 17:31N 38°55' E 001°27'7 5.7
2015-Aug-10 16:19N 38°51' E 001°19'8 0.2
2015-Aug-08 23:30N 38°55' E 001°28'0 0.0
2015-Aug-08 22:06N 38°55' E 001°28'0 0.1
2015-Aug-08 19:24N 38°54' E 001°28'  

Dump ship's entire track history